createdAt,value
2023-03-04T00:00:46.557Z,18.50
2023-03-04T00:03:19.503Z,16.10
2023-03-04T00:05:52.581Z,17.30
2023-03-04T00:08:26.009Z,15.90
2023-03-04T00:10:58.814Z,15.50
2023-03-04T00:13:33.161Z,14.80
2023-03-04T00:16:06.369Z,14.80
2023-03-04T00:18:39.125Z,18.40
2023-03-04T00:21:11.985Z,16.40
2023-03-04T00:23:44.729Z,15.30
2023-03-04T00:26:17.439Z,16.10
2023-03-04T00:28:50.194Z,15.10
2023-03-04T00:31:23.036Z,16.20
2023-03-04T00:33:55.937Z,15.80
2023-03-04T00:36:28.638Z,15.80
2023-03-04T00:39:01.830Z,14.80
2023-03-04T00:41:34.988Z,15.40
2023-03-04T00:44:09.708Z,14.90
2023-03-04T00:46:42.599Z,15.10
2023-03-04T00:49:15.399Z,15.30
2023-03-04T00:51:48.096Z,15.00
2023-03-04T00:54:21.943Z,15.40
2023-03-04T00:56:55.325Z,15.30
2023-03-04T00:59:28.160Z,15.30
2023-03-04T01:02:01.562Z,16.20
2023-03-04T01:04:38.963Z,13.90
2023-03-04T01:07:11.880Z,14.40
2023-03-04T01:09:50.023Z,14.80
2023-03-04T01:12:22.794Z,13.90
2023-03-04T01:14:56.158Z,15.30
2023-03-04T01:17:28.854Z,15.30
2023-03-04T01:20:01.998Z,13.10
2023-03-04T01:22:35.204Z,15.00
2023-03-04T01:25:09.174Z,14.70
2023-03-04T01:27:42.666Z,15.10
2023-03-04T01:30:16.549Z,15.50
2023-03-04T01:32:49.516Z,14.70
2023-03-04T01:35:26.388Z,14.30
2023-03-04T01:37:59.420Z,15.10
2023-03-04T01:40:32.361Z,14.60
2023-03-04T01:43:05.447Z,15.70
2023-03-04T01:45:40.276Z,16.10
2023-03-04T01:48:14.712Z,14.60
2023-03-04T01:50:47.897Z,14.10
2023-03-04T01:53:23.936Z,14.20
2023-03-04T01:55:58.112Z,15.30
2023-03-04T01:58:35.613Z,14.60
2023-03-04T02:01:09.038Z,16.30
2023-03-04T02:03:41.756Z,15.60
2023-03-04T02:06:16.308Z,14.60
2023-03-04T02:08:49.451Z,14.80
2023-03-04T02:11:23.960Z,15.50
2023-03-04T02:13:57.424Z,16.30
2023-03-04T02:16:30.199Z,16.50
2023-03-04T02:19:04.795Z,14.40
2023-03-04T02:21:38.015Z,14.20
2023-03-04T02:24:15.500Z,14.60
2023-03-04T02:26:48.450Z,15.00
2023-03-04T02:29:23.789Z,16.60
2023-03-04T02:31:57.147Z,14.90
2023-03-04T02:34:31.742Z,15.20
2023-03-04T02:37:04.555Z,16.00
2023-03-04T02:39:41.163Z,16.30
2023-03-04T02:42:14.318Z,14.70
2023-03-04T02:44:50.623Z,15.40
2023-03-04T02:47:25.268Z,16.70
2023-03-04T02:49:58.355Z,16.50
2023-03-04T02:52:36.796Z,16.80
2023-03-04T02:55:11.255Z,15.50
2023-03-04T02:57:48.172Z,15.60
2023-03-04T03:00:21.598Z,16.60
2023-03-04T03:02:57.316Z,17.10
2023-03-04T03:05:31.335Z,15.60
2023-03-04T03:08:04.089Z,17.60
2023-03-04T03:10:37.592Z,16.80
2023-03-04T03:13:12.387Z,15.90
2023-03-04T03:15:53.014Z,18.10
2023-03-04T03:18:31.178Z,18.40
2023-03-04T03:21:04.480Z,19.30
2023-03-04T03:23:37.681Z,17.50
2023-03-04T03:26:12.801Z,17.70
2023-03-04T03:28:45.851Z,16.00
2023-03-04T03:31:18.857Z,17.10
2023-03-04T03:33:55.802Z,16.60
2023-03-04T03:36:28.736Z,15.90
2023-03-04T03:39:01.822Z,17.70
2023-03-04T03:41:34.849Z,18.60
2023-03-04T03:44:08.144Z,18.80
2023-03-04T03:46:40.990Z,17.90
2023-03-04T03:49:13.944Z,16.90
2023-03-04T03:51:47.521Z,19.30
2023-03-04T03:54:20.219Z,18.20
2023-03-04T03:56:56.734Z,18.80
2023-03-04T03:59:29.611Z,19.20
2023-03-04T04:02:02.481Z,20.00
2023-03-04T04:04:35.729Z,19.30
2023-03-04T04:07:08.643Z,18.50
2023-03-04T04:09:42.008Z,18.40
2023-03-04T04:12:16.951Z,19.30
2023-03-04T04:14:54.067Z,20.60
2023-03-04T04:17:26.704Z,21.10
2023-03-04T04:19:59.910Z,20.30
2023-03-04T04:22:32.818Z,22.00
2023-03-04T04:25:09.781Z,21.90
2023-03-04T04:27:42.749Z,22.60
2023-03-04T04:30:16.861Z,20.60
2023-03-04T04:32:51.186Z,20.20
2023-03-04T04:35:24.141Z,18.20
2023-03-04T04:37:57.224Z,19.60
2023-03-04T04:40:30.953Z,20.80
2023-03-04T04:43:04.975Z,19.20
2023-03-04T04:45:39.452Z,19.60
2023-03-04T04:48:12.995Z,20.80
2023-03-04T04:50:46.822Z,20.80
2023-03-04T04:53:20.358Z,19.60
2023-03-04T04:55:58.046Z,19.00
2023-03-04T04:58:31.606Z,19.70
2023-03-04T05:01:05.202Z,20.40
2023-03-04T05:03:38.378Z,19.90
2023-03-04T05:06:12.154Z,18.70
2023-03-04T05:08:46.316Z,18.40
2023-03-04T05:11:19.747Z,20.40
2023-03-04T05:13:55.645Z,20.20
2023-03-04T05:16:29.408Z,19.10
2023-03-04T05:19:02.256Z,22.40
2023-03-04T05:21:35.046Z,18.20
2023-03-04T05:24:09.228Z,20.50
2023-03-04T05:26:43.615Z,21.40
2023-03-04T05:29:16.792Z,20.20
2023-03-04T05:31:49.586Z,18.80
2023-03-04T05:34:23.205Z,19.40
2023-03-04T05:36:56.289Z,17.90
2023-03-04T05:39:29.347Z,18.80
2023-03-04T05:42:02.249Z,18.60
2023-03-04T05:44:35.128Z,19.60
2023-03-04T05:47:08.298Z,21.60
2023-03-04T05:49:43.098Z,19.30
2023-03-04T05:52:16.424Z,20.50
2023-03-04T05:54:49.308Z,20.70
2023-03-04T05:57:22.340Z,21.60
2023-03-04T05:59:55.133Z,18.60
2023-03-04T06:02:28.030Z,19.80
2023-03-04T06:05:00.722Z,22.30
2023-03-04T06:07:33.923Z,21.50
2023-03-04T06:10:07.509Z,21.30
2023-03-04T06:12:40.339Z,20.90
2023-03-04T06:15:15.488Z,22.70
2023-03-04T06:17:50.763Z,23.00
2023-03-04T06:20:26.406Z,24.80
2023-03-04T06:23:00.920Z,23.70
2023-03-04T06:25:34.999Z,22.50
2023-03-04T06:28:10.309Z,24.50
2023-03-04T06:30:43.057Z,25.20
2023-03-04T06:33:18.147Z,24.20
2023-03-04T06:35:51.060Z,25.20
2023-03-04T06:38:23.716Z,23.80
2023-03-04T06:40:57.571Z,25.60
2023-03-04T06:43:31.000Z,24.30
2023-03-04T06:46:05.738Z,23.50
2023-03-04T06:48:38.903Z,25.10
2023-03-04T06:51:12.930Z,24.50
2023-03-04T06:53:46.359Z,23.30
2023-03-04T06:56:20.121Z,23.50
2023-03-04T06:58:53.440Z,24.80
2023-03-04T07:01:27.558Z,24.00
2023-03-04T07:04:03.123Z,22.20
2023-03-04T07:06:36.311Z,25.90
2023-03-04T07:09:09.269Z,24.50
2023-03-04T07:11:42.441Z,25.10
2023-03-04T07:14:15.386Z,26.30
2023-03-04T07:16:51.776Z,23.70
2023-03-04T07:19:25.367Z,23.90
2023-03-04T07:22:01.539Z,23.80
2023-03-04T07:24:35.055Z,25.60
2023-03-04T07:27:08.967Z,20.90
2023-03-04T07:29:42.646Z,23.30
2023-03-04T07:32:15.693Z,24.00
2023-03-04T07:34:49.022Z,22.70
2023-03-04T07:37:22.420Z,23.60
2023-03-04T07:39:56.989Z,25.30
2023-03-04T07:42:30.245Z,21.60
2023-03-04T07:45:13.666Z,23.30
2023-03-04T07:47:48.294Z,20.80
2023-03-04T07:50:21.144Z,22.60
2023-03-04T07:52:54.519Z,18.50
2023-03-04T07:55:28.289Z,20.40
2023-03-04T07:58:01.776Z,19.20
2023-03-04T08:00:35.405Z,19.10
2023-03-04T08:03:09.078Z,19.50
2023-03-04T08:05:43.866Z,19.90
2023-03-04T08:08:17.421Z,19.60
2023-03-04T08:10:50.556Z,17.70
2023-03-04T08:13:25.856Z,16.70
2023-03-04T08:16:02.069Z,17.40
2023-03-04T08:18:36.316Z,18.40
2023-03-04T08:21:12.642Z,15.20
2023-03-04T08:23:47.524Z,15.20
2023-03-04T08:26:21.715Z,14.70
2023-03-04T08:28:54.567Z,20.50
2023-03-04T08:31:30.502Z,21.50
2023-03-04T08:34:05.479Z,18.00
2023-03-04T08:36:38.613Z,18.10
2023-03-04T08:39:11.477Z,15.00
2023-03-04T08:41:44.634Z,14.90
2023-03-04T08:44:17.589Z,12.90
2023-03-04T08:46:50.790Z,13.80
2023-03-04T08:49:24.878Z,13.20
2023-03-04T08:51:58.247Z,14.00
2023-03-04T08:54:31.232Z,15.30
2023-03-04T08:57:08.082Z,13.20
2023-03-04T08:59:40.884Z,12.50
2023-03-04T09:02:14.608Z,13.70
2023-03-04T09:04:47.582Z,13.40
2023-03-04T09:07:22.181Z,13.00
2023-03-04T09:09:54.972Z,12.70
2023-03-04T09:12:28.560Z,11.70
2023-03-04T09:15:11.135Z,13.00
2023-03-04T09:17:45.784Z,12.40
2023-03-04T09:20:20.064Z,13.10
2023-03-04T09:22:54.243Z,12.60
2023-03-04T09:25:27.217Z,12.10
2023-03-04T09:28:00.408Z,11.10
2023-03-04T09:30:33.859Z,13.50
2023-03-04T09:33:07.148Z,11.20
2023-03-04T09:35:41.807Z,11.90
2023-03-04T09:38:14.941Z,12.90
2023-03-04T09:40:49.836Z,12.10
2023-03-04T09:43:25.288Z,12.70
2023-03-04T09:45:59.738Z,14.90
2023-03-04T09:48:35.451Z,13.30
2023-03-04T09:51:19.724Z,12.50
2023-03-04T09:53:59.964Z,15.20
2023-03-04T09:56:32.790Z,13.30
2023-03-04T09:59:15.559Z,12.00
2023-03-04T10:01:51.610Z,15.50
2023-03-04T10:04:30.673Z,13.70
2023-03-04T10:07:03.912Z,14.40
2023-03-04T10:09:44.670Z,12.90
2023-03-04T10:12:20.217Z,13.40
2023-03-04T10:14:58.505Z,15.50
2023-03-04T10:17:35.007Z,14.70
2023-03-04T10:20:17.205Z,16.10
2023-03-04T10:22:51.049Z,13.70
2023-03-04T10:25:25.554Z,13.50
2023-03-04T10:28:00.120Z,20.10
2023-03-04T10:30:41.122Z,17.20
2023-03-04T10:33:18.282Z,15.90
2023-03-04T10:35:53.912Z,15.20
2023-03-04T10:38:35.998Z,17.40
2023-03-04T10:41:16.204Z,16.90
2023-03-04T10:44:01.904Z,18.00
2023-03-04T10:46:35.018Z,19.50
2023-03-04T10:49:07.825Z,19.60
2023-03-04T10:51:46.038Z,15.80
2023-03-04T10:54:25.669Z,16.50
2023-03-04T10:57:01.499Z,15.00
2023-03-04T10:59:39.239Z,15.90
2023-03-04T11:02:27.106Z,16.00
2023-03-04T11:05:08.434Z,17.10
2023-03-04T11:07:54.596Z,17.20
2023-03-04T11:10:30.346Z,23.50
2023-03-04T11:13:15.217Z,24.90
2023-03-04T11:15:57.909Z,19.20
2023-03-04T11:18:37.437Z,16.80
2023-03-04T11:21:10.469Z,17.60
2023-03-04T11:23:46.670Z,16.70
2023-03-04T11:26:20.992Z,17.50
2023-03-04T11:28:57.978Z,17.60
2023-03-04T11:31:33.942Z,15.20
2023-03-04T11:34:11.168Z,13.10
2023-03-04T11:36:51.129Z,14.60
2023-03-04T11:39:25.936Z,14.30
2023-03-04T11:42:06.304Z,13.70
2023-03-04T11:44:39.795Z,14.00
2023-03-04T11:47:35.976Z,18.00
2023-03-04T11:50:39.395Z,15.10
2023-03-04T11:53:29.839Z,14.90
2023-03-04T11:56:11.453Z,14.20
2023-03-04T11:58:58.800Z,13.30
2023-03-04T12:01:35.550Z,13.70
2023-03-04T12:04:14.605Z,14.40
2023-03-04T12:06:53.891Z,13.40
2023-03-04T12:09:34.338Z,15.30
2023-03-04T12:12:14.132Z,13.50
2023-03-04T12:14:49.430Z,13.70
2023-03-04T12:17:50.326Z,19.30
2023-03-04T12:20:31.869Z,13.70
2023-03-04T12:23:12.618Z,14.20
2023-03-04T12:25:47.132Z,15.30
2023-03-04T12:28:29.012Z,13.80
2023-03-04T12:31:12.659Z,21.20
2023-03-04T12:33:51.772Z,35.70
2023-03-04T12:36:28.331Z,36.00
2023-03-04T12:39:05.152Z,18.50
2023-03-04T12:41:45.492Z,14.90
2023-03-04T12:44:19.404Z,15.40
2023-03-04T12:47:12.189Z,13.80
2023-03-04T12:49:55.242Z,21.10
2023-03-04T12:52:34.860Z,16.90
2023-03-04T12:55:12.007Z,14.50
2023-03-04T12:57:46.033Z,13.90
2023-03-04T13:00:24.177Z,14.30
2023-03-04T13:03:04.254Z,14.00
2023-03-04T13:05:46.067Z,11.00
2023-03-04T13:08:26.591Z,12.50
2023-03-04T13:11:25.990Z,12.40
2023-03-04T13:14:06.499Z,13.30
2023-03-04T13:16:43.839Z,12.50
2023-03-04T13:19:51.225Z,12.80
2023-03-04T13:22:48.575Z,12.80
2023-03-04T13:25:39.199Z,13.20
2023-03-04T13:28:29.225Z,12.10
2023-03-04T13:31:26.773Z,12.50
2023-03-04T13:34:06.749Z,13.50
2023-03-04T13:37:04.777Z,12.70
2023-03-04T13:39:39.982Z,12.30
2023-03-04T13:42:42.368Z,12.40
2023-03-04T13:45:36.266Z,12.10
2023-03-04T13:48:22.849Z,12.60
2023-03-04T13:50:55.773Z,14.50
2023-03-04T13:53:39.288Z,13.10
2023-03-04T13:56:31.548Z,12.50
2023-03-04T13:59:30.244Z,10.70
2023-03-04T14:02:04.645Z,12.00
2023-03-04T14:04:40.065Z,13.60
2023-03-04T14:07:25.735Z,12.80
2023-03-04T14:10:06.112Z,13.30
2023-03-04T14:12:43.092Z,12.10
2023-03-04T14:15:24.370Z,11.60
2023-03-04T14:17:58.654Z,13.20
2023-03-04T14:20:36.476Z,12.70
2023-03-04T14:23:29.794Z,14.60
2023-03-04T14:26:11.077Z,13.30
2023-03-04T14:28:48.641Z,14.90
2023-03-04T14:31:23.650Z,13.30
2023-03-04T14:34:00.081Z,12.80
2023-03-04T14:36:35.143Z,13.00
2023-03-04T14:39:08.896Z,12.90
2023-03-04T14:41:45.731Z,13.00
2023-03-04T14:44:22.206Z,12.90
2023-03-04T14:47:07.577Z,13.70
2023-03-04T14:49:41.821Z,11.80
2023-03-04T14:52:38.074Z,12.40
2023-03-04T14:55:23.185Z,13.40
2023-03-04T14:58:07.403Z,12.30
2023-03-04T15:00:41.712Z,11.40
2023-03-04T15:03:22.940Z,12.40
2023-03-04T15:05:55.979Z,12.20
2023-03-04T15:08:29.464Z,11.80
2023-03-04T15:11:04.185Z,12.10
2023-03-04T15:13:44.181Z,12.20
2023-03-04T15:16:18.431Z,12.10
2023-03-04T15:19:02.403Z,12.90
2023-03-04T15:21:40.441Z,11.60
2023-03-04T15:24:15.711Z,13.10
2023-03-04T15:26:50.771Z,11.80
2023-03-04T15:29:23.736Z,12.70
2023-03-04T15:31:57.331Z,12.00
2023-03-04T15:34:31.765Z,12.70
2023-03-04T15:37:04.664Z,13.30
2023-03-04T15:39:38.416Z,13.50
2023-03-04T15:42:14.782Z,12.70
2023-03-04T15:44:48.846Z,12.50
2023-03-04T15:47:22.444Z,14.00
2023-03-04T15:49:58.644Z,13.20
2023-03-04T15:52:31.408Z,12.60
2023-03-04T15:55:04.523Z,12.60
2023-03-04T15:57:38.627Z,13.00
2023-03-04T16:00:15.305Z,12.90
2023-03-04T16:02:48.995Z,13.70
2023-03-04T16:05:22.799Z,14.90
2023-03-04T16:07:55.446Z,13.90
2023-03-04T16:10:29.964Z,13.40
2023-03-04T16:13:03.163Z,14.00
2023-03-04T16:15:43.568Z,15.00
2023-03-04T16:18:16.953Z,13.90
2023-03-04T16:20:50.769Z,14.70
2023-03-04T16:23:25.526Z,13.60
2023-03-04T16:25:58.955Z,13.80
2023-03-04T16:28:32.382Z,14.30
2023-03-04T16:31:06.025Z,14.20
2023-03-04T16:33:39.160Z,14.10
2023-03-04T16:36:17.730Z,14.90
2023-03-04T16:38:51.516Z,16.30
2023-03-04T16:41:26.690Z,13.30
2023-03-04T16:44:01.173Z,14.90
2023-03-04T16:46:38.135Z,13.10
2023-03-04T16:49:10.996Z,13.50
2023-03-04T16:51:47.095Z,13.90
2023-03-04T16:54:20.899Z,13.90
2023-03-04T16:56:54.212Z,14.80
2023-03-04T16:59:27.172Z,13.90
2023-03-04T17:02:00.369Z,13.70
2023-03-04T17:04:33.430Z,14.10
2023-03-04T17:07:06.849Z,14.60
2023-03-04T17:09:40.421Z,13.40
2023-03-04T17:12:14.879Z,12.80
2023-03-04T17:14:49.502Z,12.50
2023-03-04T17:17:22.524Z,13.40
2023-03-04T17:19:57.084Z,14.50
2023-03-04T17:22:30.837Z,13.20
2023-03-04T17:25:04.520Z,14.50
2023-03-04T17:27:38.190Z,13.60
2023-03-04T17:30:14.237Z,13.90
2023-03-04T17:32:47.555Z,14.10
2023-03-04T17:35:20.715Z,15.10
2023-03-04T17:37:54.284Z,13.30
2023-03-04T17:40:30.892Z,14.70
2023-03-04T17:43:03.813Z,14.30
2023-03-04T17:45:38.217Z,15.70
2023-03-04T17:48:15.479Z,15.30
2023-03-04T17:50:52.857Z,16.10
2023-03-04T17:53:26.149Z,16.40
2023-03-04T17:56:03.195Z,16.00
2023-03-04T17:58:39.016Z,17.40
2023-03-04T18:01:19.944Z,17.90
2023-03-04T18:03:54.504Z,17.70
2023-03-04T18:06:28.068Z,16.00
2023-03-04T18:09:03.346Z,17.80
2023-03-04T18:11:37.769Z,20.50
2023-03-04T18:14:13.077Z,18.00
2023-03-04T18:16:51.517Z,16.70
2023-03-04T18:19:24.690Z,20.90
2023-03-04T18:22:00.048Z,21.00
2023-03-04T18:24:33.780Z,22.20
2023-03-04T18:27:07.749Z,23.00
2023-03-04T18:29:42.806Z,23.70
2023-03-04T18:32:15.807Z,21.40
2023-03-04T18:34:49.360Z,23.30
2023-03-04T18:37:22.112Z,23.80
2023-03-04T18:39:56.115Z,21.90
2023-03-04T18:42:28.934Z,21.00
2023-03-04T18:45:02.946Z,20.40
2023-03-04T18:47:38.115Z,19.60
2023-03-04T18:50:13.031Z,21.80
2023-03-04T18:52:46.564Z,20.10
2023-03-04T18:55:19.614Z,24.00
2023-03-04T18:57:54.127Z,21.80
2023-03-04T19:00:27.422Z,22.70
2023-03-04T19:03:02.406Z,19.80
2023-03-04T19:05:36.807Z,24.00
2023-03-04T19:08:10.876Z,22.40
2023-03-04T19:10:43.953Z,21.70
2023-03-04T19:13:22.967Z,23.50
2023-03-04T19:15:56.124Z,22.70
2023-03-04T19:18:29.374Z,21.30
2023-03-04T19:21:05.424Z,22.50
2023-03-04T19:23:40.314Z,22.70
2023-03-04T19:26:17.522Z,21.90
2023-03-04T19:28:50.473Z,21.60
2023-03-04T19:31:23.254Z,21.70
2023-03-04T19:33:57.651Z,21.30
2023-03-04T19:36:31.588Z,23.20
2023-03-04T19:39:04.805Z,23.20
2023-03-04T19:41:37.873Z,20.60
2023-03-04T19:44:11.870Z,21.50
2023-03-04T19:46:45.555Z,20.70
2023-03-04T19:49:19.324Z,22.60
2023-03-04T19:51:52.675Z,21.40
2023-03-04T19:54:25.603Z,20.30
2023-03-04T19:56:59.117Z,19.80
2023-03-04T19:59:31.956Z,20.80
2023-03-04T20:02:06.003Z,20.70
2023-03-04T20:04:39.156Z,21.10
2023-03-04T20:07:14.348Z,20.50
2023-03-04T20:09:49.768Z,20.50
2023-03-04T20:12:22.423Z,23.60
2023-03-04T20:14:57.771Z,21.00
2023-03-04T20:17:30.726Z,23.50
2023-03-04T20:20:12.623Z,22.90
2023-03-04T20:22:45.459Z,23.10
2023-03-04T20:25:18.614Z,22.70
2023-03-04T20:27:52.128Z,23.20
2023-03-04T20:30:25.113Z,23.50
2023-03-04T20:32:58.371Z,23.30
2023-03-04T20:35:31.834Z,24.60
2023-03-04T20:38:04.929Z,23.30
2023-03-04T20:40:39.015Z,24.10
2023-03-04T20:43:11.998Z,26.80
2023-03-04T20:45:46.150Z,25.90
2023-03-04T20:48:19.694Z,26.10
2023-03-04T20:50:52.691Z,29.00
2023-03-04T20:53:26.429Z,27.40
2023-03-04T20:56:03.589Z,27.90
2023-03-04T20:58:37.841Z,26.60
2023-03-04T21:01:10.888Z,30.10
2023-03-04T21:03:44.332Z,25.80
2023-03-04T21:06:17.466Z,30.60
2023-03-04T21:08:51.639Z,32.00
2023-03-04T21:11:26.563Z,30.00
2023-03-04T21:13:59.726Z,30.50
2023-03-04T21:16:33.009Z,34.10
2023-03-04T21:19:06.389Z,28.40
2023-03-04T21:21:44.391Z,32.70
2023-03-04T21:24:19.638Z,32.80
2023-03-04T21:26:52.615Z,32.20
2023-03-04T21:29:27.504Z,32.90
2023-03-04T21:32:13.287Z,31.30
2023-03-04T21:34:55.711Z,34.20
2023-03-04T21:37:29.086Z,33.90
2023-03-04T21:40:02.850Z,35.00
2023-03-04T21:42:35.920Z,32.80
2023-03-04T21:45:11.513Z,32.90
2023-03-04T21:47:45.024Z,32.00
2023-03-04T21:50:18.368Z,38.70
2023-03-04T21:52:51.890Z,33.70
2023-03-04T21:55:25.204Z,33.30
2023-03-04T21:57:57.926Z,31.40
2023-03-04T22:00:30.897Z,33.60
2023-03-04T22:03:07.319Z,32.80
2023-03-04T22:05:45.204Z,32.70
2023-03-04T22:08:18.424Z,33.60
2023-03-04T22:10:52.244Z,36.70
2023-03-04T22:13:25.483Z,38.60
2023-03-04T22:15:59.590Z,34.70
2023-03-04T22:18:32.678Z,38.60
2023-03-04T22:21:07.709Z,34.70
2023-03-04T22:23:41.060Z,37.10
2023-03-04T22:26:15.566Z,34.10
2023-03-04T22:28:48.364Z,39.30
2023-03-04T22:31:26.550Z,37.70
2023-03-04T22:34:01.416Z,36.20
2023-03-04T22:36:34.565Z,38.10
2023-03-04T22:39:08.493Z,40.10
2023-03-04T22:41:43.878Z,40.40
2023-03-04T22:44:16.929Z,41.20
2023-03-04T22:46:49.660Z,42.10
2023-03-04T22:49:22.605Z,40.50
2023-03-04T22:51:57.200Z,42.30
2023-03-04T22:54:31.201Z,42.10
2023-03-04T22:57:04.316Z,42.60
2023-03-04T22:59:37.378Z,40.40
2023-03-04T23:02:10.122Z,39.50
2023-03-04T23:04:43.133Z,39.40
2023-03-04T23:07:15.894Z,44.60
2023-03-04T23:09:48.654Z,43.30
2023-03-04T23:12:21.545Z,40.90
2023-03-04T23:14:54.384Z,42.40
2023-03-04T23:17:27.677Z,42.00
2023-03-04T23:20:00.566Z,45.40
2023-03-04T23:22:39.781Z,44.40
2023-03-04T23:25:13.605Z,49.10
2023-03-04T23:27:46.445Z,49.00
2023-03-04T23:30:19.792Z,48.70
2023-03-04T23:32:52.668Z,48.30
2023-03-04T23:35:25.339Z,50.90
2023-03-04T23:37:59.060Z,50.70
2023-03-04T23:40:33.596Z,52.00
2023-03-04T23:43:06.303Z,50.70
2023-03-04T23:45:40.162Z,54.40
2023-03-04T23:48:14.320Z,45.90
2023-03-04T23:50:52.513Z,53.20
2023-03-04T23:53:25.227Z,58.00
2023-03-04T23:55:58.435Z,56.80
2023-03-04T23:58:31.293Z,53.70
